sensor_id;sensor_type;location;lat;lon;timestamp;pressure;altitude;pressure_sealevel;temperature;humidity
32243;BME280;18731;42.830;24.390;2023-04-10T03:02:29;94585.09;;;7.28;83.45
32243;BME280;18731;42.830;24.390;2023-04-10T03:04:55;94588.34;;;7.25;83.75
32243;BME280;18731;42.830;24.390;2023-04-10T03:07:20;94584.59;;;7.26;84.05
32243;BME280;18731;42.830;24.390;2023-04-10T03:09:46;94585.31;;;7.40;84.01
32243;BME280;18731;42.830;24.390;2023-04-10T03:12:12;94593.75;;;7.42;84.04
32243;BME280;18731;42.830;24.390;2023-04-10T03:14:37;94581.22;;;7.34;84.16
32243;BME280;18731;42.830;24.390;2023-04-10T03:17:04;94586.75;;;7.46;83.95
32243;BME280;18731;42.830;24.390;2023-04-10T03:19:30;94590.28;;;7.33;84.69
32243;BME280;18731;42.830;24.390;2023-04-10T03:21:57;94593.53;;;7.30;85.42
32243;BME280;18731;42.830;24.390;2023-04-10T03:24:22;94570.63;;;7.12;85.50
32243;BME280;18731;42.830;24.390;2023-04-10T03:26:48;94591.56;;;7.13;86.22
32243;BME280;18731;42.830;24.390;2023-04-10T03:29:14;94588.78;;;7.18;86.16
32243;BME280;18731;42.830;24.390;2023-04-10T03:31:43;94596.56;;;7.15;85.82
32243;BME280;18731;42.830;24.390;2023-04-10T03:34:09;94538.88;;;6.75;86.20
32243;BME280;18731;42.830;24.390;2023-04-10T03:36:34;94589.94;;;7.03;86.80
32243;BME280;18731;42.830;24.390;2023-04-10T03:39:00;94586.31;;;6.99;86.51
32243;BME280;18731;42.830;24.390;2023-04-10T03:41:25;94573.41;;;6.84;86.85
32243;BME280;18731;42.830;24.390;2023-04-10T03:43:51;94572.81;;;6.87;86.76
32243;BME280;18731;42.830;24.390;2023-04-10T03:46:17;94601.50;;;7.07;86.46
32243;BME280;18731;42.830;24.390;2023-04-10T03:48:42;94594.94;;;7.05;86.71
32243;BME280;18731;42.830;24.390;2023-04-10T03:51:08;94595.13;;;7.08;86.42
32243;BME280;18731;42.830;24.390;2023-04-10T03:53:33;94597.47;;;7.10;86.33
32243;BME280;18731;42.830;24.390;2023-04-10T03:56:01;94597.47;;;7.10;86.46
32243;BME280;18731;42.830;24.390;2023-04-10T03:58:28;94587.41;;;6.98;86.29
32243;BME280;18731;42.830;24.390;2023-04-10T04:00:53;94598.13;;;7.16;85.82
32243;BME280;18731;42.830;24.390;2023-04-10T04:03:19;94589.09;;;7.17;85.63
32243;BME280;18731;42.830;24.390;2023-04-10T04:05:45;94599.75;;;7.25;85.30
32243;BME280;18731;42.830;24.390;2023-04-10T04:08:10;94602.09;;;7.27;84.90
32243;BME280;18731;42.830;24.390;2023-04-10T04:10:38;94608.69;;;7.29;84.89
32243;BME280;18731;42.830;24.390;2023-04-10T04:13:04;94607.28;;;7.32;84.73
32243;BME280;18731;42.830;24.390;2023-04-10T04:15:31;94607.16;;;7.37;84.65
32243;BME280;18731;42.830;24.390;2023-04-10T04:17:57;94594.50;;;7.34;84.54
32243;BME280;18731;42.830;24.390;2023-04-10T04:20:25;94590.28;;;7.33;83.91
32243;BME280;18731;42.830;24.390;2023-04-10T04:22:51;94592.75;;;7.29;84.17
32243;BME280;18731;42.830;24.390;2023-04-10T04:25:17;94612.47;;;7.37;84.17
32243;BME280;18731;42.830;24.390;2023-04-10T04:27:44;94609.56;;;7.47;83.94
32243;BME280;18731;42.830;24.390;2023-04-10T04:30:10;94612.38;;;7.51;83.76
32243;BME280;18731;42.830;24.390;2023-04-10T04:32:36;94606.28;;;7.50;83.80
32243;BME280;18731;42.830;24.390;2023-04-10T04:35:02;94613.50;;;7.58;83.56
32243;BME280;18731;42.830;24.390;2023-04-10T04:37:27;94613.06;;;7.65;83.13
32243;BME280;18731;42.830;24.390;2023-04-10T04:39:53;94598.81;;;7.52;83.05
32243;BME280;18731;42.830;24.390;2023-04-10T04:42:18;94613.50;;;7.58;83.02
32243;BME280;18731;42.830;24.390;2023-04-10T04:44:44;94617.09;;;7.54;83.57
32243;BME280;18731;42.830;24.390;2023-04-10T04:47:10;94617.69;;;7.51;83.50
32243;BME280;18731;42.830;24.390;2023-04-10T04:49:36;94619.31;;;7.60;83.23
32243;BME280;18731;42.830;24.390;2023-04-10T04:52:01;94614.13;;;7.55;82.97
32243;BME280;18731;42.830;24.390;2023-04-10T04:54:27;94619.09;;;7.48;83.45
32243;BME280;18731;42.830;24.390;2023-04-10T04:56:53;94614.88;;;7.47;83.62
32243;BME280;18731;42.830;24.390;2023-04-10T04:59:18;94622.66;;;7.43;84.04
32243;BME280;18731;42.830;24.390;2023-04-10T05:01:44;94622.84;;;7.47;84.04
32243;BME280;18731;42.830;24.390;2023-04-10T05:04:10;94613.00;;;7.48;84.12
32243;BME280;18731;42.830;24.390;2023-04-10T05:06:37;94626.78;;;7.58;83.87
32243;BME280;18731;42.830;24.390;2023-04-10T05:09:03;94621.34;;;7.63;83.39
32243;BME280;18731;42.830;24.390;2023-04-10T05:11:28;94624.50;;;7.65;83.29
32243;BME280;18731;42.830;24.390;2023-04-10T05:13:54;94624.50;;;7.65;83.22
32243;BME280;18731;42.830;24.390;2023-04-10T05:16:20;94623.56;;;7.70;83.25
32243;BME280;18731;42.830;24.390;2023-04-10T05:18:46;94618.53;;;7.60;83.71
32243;BME280;18731;42.830;24.390;2023-04-10T05:21:11;94629.19;;;7.68;83.58
32243;BME280;18731;42.830;24.390;2023-04-10T05:23:37;94633.75;;;7.77;83.25
32243;BME280;18731;42.830;24.390;2023-04-10T05:26:03;94632.38;;;7.79;81.51
32243;BME280;18731;42.830;24.390;2023-04-10T05:28:28;94627.19;;;7.74;82.04
32243;BME280;18731;42.830;24.390;2023-04-10T05:30:54;94623.25;;;7.71;82.79
32243;BME280;18731;42.830;24.390;2023-04-10T05:33:20;94629.53;;;7.75;82.84
32243;BME280;18731;42.830;24.390;2023-04-10T05:35:45;94629.06;;;7.73;82.46
32243;BME280;18731;42.830;24.390;2023-04-10T05:38:11;94610.69;;;7.55;81.90
32243;BME280;18731;42.830;24.390;2023-04-10T05:40:37;94636.50;;;7.63;82.22
32243;BME280;18731;42.830;24.390;2023-04-10T05:43:02;94618.22;;;7.61;81.81
32243;BME280;18731;42.830;24.390;2023-04-10T05:45:28;94626.97;;;7.62;82.66
32243;BME280;18731;42.830;24.390;2023-04-10T05:47:54;94639.56;;;7.79;81.98
32243;BME280;18731;42.830;24.390;2023-04-10T05:50:20;94640.28;;;7.70;81.83
32243;BME280;18731;42.830;24.390;2023-04-10T05:52:46;94630.88;;;7.64;81.65
32243;BME280;18731;42.830;24.390;2023-04-10T05:55:11;94637.47;;;7.67;81.64
32243;BME280;18731;42.830;24.390;2023-04-10T05:57:38;94640.44;;;7.65;82.27
32243;BME280;18731;42.830;24.390;2023-04-10T06:00:04;94643.13;;;7.74;82.17
32243;BME280;18731;42.830;24.390;2023-04-10T06:02:31;94634.69;;;7.72;82.57
32243;BME280;18731;42.830;24.390;2023-04-10T06:04:56;94640.16;;;7.75;82.34
32243;BME280;18731;42.830;24.390;2023-04-10T06:07:22;94646.03;;;7.86;82.33
32243;BME280;18731;42.830;24.390;2023-04-10T06:09:48;94619.81;;;7.71;82.48
32243;BME280;18731;42.830;24.390;2023-04-10T06:12:13;94642.94;;;7.93;82.56
32243;BME280;18731;42.830;24.390;2023-04-10T06:14:39;94642.50;;;8.08;81.27
32243;BME280;18731;42.830;24.390;2023-04-10T06:17:04;94641.63;;;8.21;80.24
32243;BME280;18731;42.830;24.390;2023-04-10T06:19:30;94632.88;;;8.29;79.93
32243;BME280;18731;42.830;24.390;2023-04-10T06:21:56;94626.69;;;8.43;79.39
32243;BME280;18731;42.830;24.390;2023-04-10T06:24:22;94631.53;;;8.49;78.62
32243;BME280;18731;42.830;24.390;2023-04-10T06:26:48;94633.41;;;8.49;77.27
32243;BME280;18731;42.830;24.390;2023-04-10T06:29:13;94632.00;;;8.51;76.78
32243;BME280;18731;42.830;24.390;2023-04-10T06:31:39;94623.38;;;8.37;77.23
32243;BME280;18731;42.830;24.390;2023-04-10T06:34:05;94633.28;;;8.54;75.67
32243;BME280;18731;42.830;24.390;2023-04-10T06:36:30;94634.22;;;8.58;75.02
32243;BME280;18731;42.830;24.390;2023-04-10T06:38:57;94625.44;;;8.49;75.62
32243;BME280;18731;42.830;24.390;2023-04-10T06:41:23;94624.00;;;8.34;75.91
32243;BME280;18731;42.830;24.390;2023-04-10T06:43:48;94628.19;;;8.26;76.45
32243;BME280;18731;42.830;24.390;2023-04-10T06:46:14;94629.25;;;8.17;77.50
32243;BME280;18731;42.830;24.390;2023-04-10T06:48:40;94616.03;;;7.94;76.19
32243;BME280;18731;42.830;24.390;2023-04-10T06:51:06;94636.78;;;7.84;78.30
32243;BME280;18731;42.830;24.390;2023-04-10T06:53:32;94630.50;;;7.80;78.14
32243;BME280;18731;42.830;24.390;2023-04-10T06:55:57;94635.81;;;7.80;77.38
32243;BME280;18731;42.830;24.390;2023-04-10T06:58:23;94637.41;;;7.81;77.73
32243;BME280;18731;42.830;24.390;2023-04-10T07:00:49;94621.34;;;7.63;76.98
32243;BME280;18731;42.830;24.390;2023-04-10T07:03:14;94638.84;;;7.87;75.03
32243;BME280;18731;42.830;24.390;2023-04-10T07:05:40;94645.25;;;7.86;74.72
32243;BME280;18731;42.830;24.390;2023-04-10T07:08:06;94638.69;;;7.92;73.72
32243;BME280;18731;42.830;24.390;2023-04-10T07:10:33;94642.78;;;7.98;74.43
32243;BME280;18731;42.830;24.390;2023-04-10T07:12:58;94636.03;;;7.92;75.11
32243;BME280;18731;42.830;24.390;2023-04-10T07:15:24;94639.69;;;8.04;74.42
32243;BME280;18731;42.830;24.390;2023-04-10T07:17:50;94633.44;;;8.09;74.24
32243;BME280;18731;42.830;24.390;2023-04-10T07:20:16;94656.69;;;8.34;73.35
32243;BME280;18731;42.830;24.390;2023-04-10T07:22:41;94643.59;;;8.55;72.24
32243;BME280;18731;42.830;24.390;2023-04-10T07:25:08;94643.59;;;8.64;71.16
32243;BME280;18731;42.830;24.390;2023-04-10T07:27:33;94636.72;;;8.72;72.21
32243;BME280;18731;42.830;24.390;2023-04-10T07:29:59;94646.44;;;8.93;70.74
32243;BME280;18731;42.830;24.390;2023-04-10T07:32:25;94628.13;;;9.09;69.13
32243;BME280;18731;42.830;24.390;2023-04-10T07:34:50;94611.50;;;9.12;67.90
32243;BME280;18731;42.830;24.390;2023-04-10T07:37:16;94648.47;;;9.40;67.26
32243;BME280;18731;42.830;24.390;2023-04-10T07:39:43;94644.69;;;9.49;67.82
32243;BME280;18731;42.830;24.390;2023-04-10T07:42:10;94640.56;;;9.60;65.81
32243;BME280;18731;42.830;24.390;2023-04-10T07:44:35;94639.00;;;9.68;64.45
32243;BME280;18731;42.830;24.390;2023-04-10T07:47:02;94638.00;;;9.81;65.55
32243;BME280;18731;42.830;24.390;2023-04-10T07:49:28;94620.88;;;9.91;66.94
32243;BME280;18731;42.830;24.390;2023-04-10T07:51:53;94618.00;;;10.05;63.96
32243;BME280;18731;42.830;24.390;2023-04-10T07:54:19;94636.13;;;10.28;63.81
32243;BME280;18731;42.830;24.390;2023-04-10T07:56:45;94624.16;;;10.35;62.86
32243;BME280;18731;42.830;24.390;2023-04-10T07:59:11;94634.97;;;10.38;62.79
32243;BME280;18731;42.830;24.390;2023-04-10T08:01:37;94623.25;;;10.30;62.13
32243;BME280;18731;42.830;24.390;2023-04-10T08:04:03;94632.78;;;10.40;62.20
32243;BME280;18731;42.830;24.390;2023-04-10T08:06:28;94631.34;;;10.43;61.13
32243;BME280;18731;42.830;24.390;2023-04-10T08:08:55;94634.09;;;10.17;61.93
32243;BME280;18731;42.830;24.390;2023-04-10T08:11:23;94623.72;;;9.86;58.56
32243;BME280;18731;42.830;24.390;2023-04-10T08:13:51;94625.16;;;9.83;62.36
32243;BME280;18731;42.830;24.390;2023-04-10T08:18:46;94626.09;;;9.79;57.93
32243;BME280;18731;42.830;24.390;2023-04-10T08:21:13;94608.06;;;9.76;57.34
32243;BME280;18731;42.830;24.390;2023-04-10T08:23:38;94624.66;;;9.90;57.37
32243;BME280;18731;42.830;24.390;2023-04-10T08:26:04;94631.66;;;10.03;58.71
32243;BME280;18731;42.830;24.390;2023-04-10T08:28:30;94629.13;;;10.07;57.40
32243;BME280;18731;42.830;24.390;2023-04-10T08:30:57;94617.97;;;10.13;57.38
32243;BME280;18731;42.830;24.390;2023-04-10T08:33:22;94607.00;;;10.06;55.57
32243;BME280;18731;42.830;24.390;2023-04-10T08:35:48;94619.53;;;10.14;56.87
32243;BME280;18731;42.830;24.390;2023-04-10T08:38:13;94621.34;;;9.93;55.90
32243;BME280;18731;42.830;24.390;2023-04-10T08:40:40;94622.63;;;9.87;57.45
32243;BME280;18731;42.830;24.390;2023-04-10T08:43:05;94618.94;;;9.62;57.12
32243;BME280;18731;42.830;24.390;2023-04-10T08:45:32;94616.28;;;9.62;56.94
32243;BME280;18731;42.830;24.390;2023-04-10T08:48:01;94601.03;;;9.71;58.08
32243;BME280;18731;42.830;24.390;2023-04-10T08:50:30;94629.00;;;10.03;59.64
32243;BME280;18731;42.830;24.390;2023-04-10T08:52:59;94625.94;;;10.22;55.72
32243;BME280;18731;42.830;24.390;2023-04-10T08:55:27;94620.31;;;10.53;56.58
32243;BME280;18731;42.830;24.390;2023-04-10T08:57:53;94607.03;;;10.65;53.82
32243;BME280;18731;42.830;24.390;2023-04-10T09:00:19;94580.75;;;10.55;54.05
32243;BME280;18731;42.830;24.390;2023-04-10T09:02:45;94601.56;;;10.82;54.28
32243;BME280;18731;42.830;24.390;2023-04-10T09:05:11;94570.38;;;10.74;53.15
32243;BME280;18731;42.830;24.390;2023-04-10T09:07:40;94591.22;;;11.02;53.55
32243;BME280;18731;42.830;24.390;2023-04-10T09:10:06;94586.00;;;11.05;53.29
32243;BME280;18731;42.830;24.390;2023-04-10T09:12:44;94580.47;;;10.89;52.69
32243;BME280;18731;42.830;24.390;2023-04-10T09:15:10;94574.88;;;10.82;52.72
32243;BME280;18731;42.830;24.390;2023-04-10T09:17:36;94579.81;;;10.72;52.79
32243;BME280;18731;42.830;24.390;2023-04-10T09:20:20;94579.88;;;10.42;52.14
32243;BME280;18731;42.830;24.390;2023-04-10T09:22:46;94589.78;;;10.42;52.65
32243;BME280;18731;42.830;24.390;2023-04-10T09:25:32;94572.59;;;10.22;52.80
32243;BME280;18731;42.830;24.390;2023-04-10T09:28:03;94592.22;;;10.17;53.70
32243;BME280;18731;42.830;24.390;2023-04-10T09:30:37;94588.53;;;10.01;54.91
32243;BME280;18731;42.830;24.390;2023-04-10T09:35:44;94613.75;;;9.65;58.95
32243;BME280;18731;42.830;24.390;2023-04-10T09:38:17;94598.31;;;9.42;62.39
32243;BME280;18731;42.830;24.390;2023-04-10T09:40:44;94609.91;;;9.37;63.82
32243;BME280;18731;42.830;24.390;2023-04-10T09:43:18;94609.78;;;9.25;64.33
32243;BME280;18731;42.830;24.390;2023-04-10T09:45:52;94615.59;;;9.01;64.28
32243;BME280;18731;42.830;24.390;2023-04-10T09:48:19;94610.13;;;8.97;64.72
32243;BME280;18731;42.830;24.390;2023-04-10T09:50:45;94604.16;;;9.00;64.17
32243;BME280;18731;42.830;24.390;2023-04-10T09:53:14;94596.50;;;8.99;63.31
32243;BME280;18731;42.830;24.390;2023-04-10T09:55:41;94606.66;;;9.06;64.50
32243;BME280;18731;42.830;24.390;2023-04-10T09:58:08;94601.50;;;9.18;65.17
32243;BME280;18731;42.830;24.390;2023-04-10T10:00:45;94600.72;;;9.09;64.94
32243;BME280;18731;42.830;24.390;2023-04-10T10:03:15;94596.19;;;8.92;68.04
32243;BME280;18731;42.830;24.390;2023-04-10T10:05:44;94594.28;;;9.18;67.68
32243;BME280;18731;42.830;24.390;2023-04-10T10:08:12;94590.34;;;9.80;64.83
32243;BME280;18731;42.830;24.390;2023-04-10T10:10:50;94566.19;;;10.14;62.52
32243;BME280;18731;42.830;24.390;2023-04-10T10:13:27;94576.06;;;10.52;60.22
32243;BME280;18731;42.830;24.390;2023-04-10T10:16:11;94578.41;;;10.74;60.12
32243;BME280;18731;42.830;24.390;2023-04-10T10:19:02;94576.53;;;11.08;59.85
32243;BME280;18731;42.830;24.390;2023-04-10T10:21:29;94571.28;;;11.32;58.40
32243;BME280;18731;42.830;24.390;2023-04-10T10:24:00;94566.47;;;11.71;59.14
32243;BME280;18731;42.830;24.390;2023-04-10T10:26:27;94556.91;;;11.82;56.43
32243;BME280;18731;42.830;24.390;2023-04-10T10:28:55;94546.13;;;11.90;54.43
32243;BME280;18731;42.830;24.390;2023-04-10T10:31:21;94564.06;;;12.14;56.73
32243;BME280;18731;42.830;24.390;2023-04-10T10:33:51;94569.72;;;12.25;55.15
32243;BME280;18731;42.830;24.390;2023-04-10T10:36:18;94556.44;;;12.41;55.60
32243;BME280;18731;42.830;24.390;2023-04-10T10:47:52;94549.22;;;12.17;56.38
32243;BME280;18731;42.830;24.390;2023-04-10T10:50:18;94541.88;;;11.89;56.00
32243;BME280;18731;42.830;24.390;2023-04-10T10:52:46;94538.81;;;11.54;55.54
32243;BME280;18731;42.830;24.390;2023-04-10T10:57:56;94513.78;;;11.14;56.01
32243;BME280;18731;42.830;24.390;2023-04-10T11:00:23;94520.44;;;11.08;57.91
32243;BME280;18731;42.830;24.390;2023-04-10T11:05:58;94506.31;;;11.65;55.43
32243;BME280;18731;42.830;24.390;2023-04-10T11:08:36;94506.09;;;11.94;57.55
32243;BME280;18731;42.830;24.390;2023-04-10T11:11:22;94501.50;;;12.19;57.81
32243;BME280;18731;42.830;24.390;2023-04-10T11:16:40;94500.16;;;12.25;56.22
32243;BME280;18731;42.830;24.390;2023-04-10T11:19:11;94510.31;;;12.19;56.22
32243;BME280;18731;42.830;24.390;2023-04-10T11:22:02;94494.38;;;12.11;55.71
32243;BME280;18731;42.830;24.390;2023-04-10T11:24:52;94494.03;;;12.24;54.52
32243;BME280;18731;42.830;24.390;2023-04-10T11:27:44;94488.22;;;12.22;54.12
32243;BME280;18731;42.830;24.390;2023-04-10T11:30:29;94481.31;;;12.21;54.73
32243;BME280;18731;42.830;24.390;2023-04-10T11:32:56;94478.66;;;12.09;56.38
32243;BME280;18731;42.830;24.390;2023-04-10T11:35:22;94481.56;;;12.16;53.78
32243;BME280;18731;42.830;24.390;2023-04-10T11:37:48;94483.31;;;12.24;52.60
32243;BME280;18731;42.830;24.390;2023-04-10T11:40:13;94483.94;;;12.46;51.48
32243;BME280;18731;42.830;24.390;2023-04-10T11:42:39;94472.25;;;12.38;49.93
32243;BME280;18731;42.830;24.390;2023-04-10T11:45:24;94475.69;;;12.39;50.09
32243;BME280;18731;42.830;24.390;2023-04-10T11:47:53;94473.28;;;12.21;49.44
32243;BME280;18731;42.830;24.390;2023-04-10T11:50:20;94471.22;;;12.03;48.95
32243;BME280;18731;42.830;24.390;2023-04-10T11:52:51;94465.41;;;11.64;48.76
32243;BME280;18731;42.830;24.390;2023-04-10T11:55:17;94464.41;;;11.44;51.16
32243;BME280;18731;42.830;24.390;2023-04-10T11:57:44;94473.44;;;11.52;53.96
32243;BME280;18731;42.830;24.390;2023-04-10T12:00:10;94459.94;;;11.36;56.53
32243;BME280;18731;42.830;24.390;2023-04-10T12:02:52;94458.16;;;11.28;57.44
32243;BME280;18731;42.830;24.390;2023-04-10T12:05:17;94465.38;;;11.15;58.20
32243;BME280;18731;42.830;24.390;2023-04-10T12:07:43;94445.03;;;10.78;60.01
32243;BME280;18731;42.830;24.390;2023-04-10T12:10:09;94451.78;;;10.63;60.79
32243;BME280;18731;42.830;24.390;2023-04-10T12:12:36;94456.28;;;10.29;60.92
32243;BME280;18731;42.830;24.390;2023-04-10T12:15:02;94430.75;;;9.99;62.17
32243;BME280;18731;42.830;24.390;2023-04-10T12:17:28;94451.03;;;10.12;61.85
32243;BME280;18731;42.830;24.390;2023-04-10T12:19:54;94452.41;;;9.97;62.03
32243;BME280;18731;42.830;24.390;2023-04-10T12:22:21;94448.31;;;10.00;62.72
32243;BME280;18731;42.830;24.390;2023-04-10T12:24:48;94432.88;;;9.85;63.42
32243;BME280;18731;42.830;24.390;2023-04-10T12:29:46;94440.44;;;9.83;63.74
32243;BME280;18731;42.830;24.390;2023-04-10T12:32:13;94440.34;;;9.71;64.58
32243;BME280;18731;42.830;24.390;2023-04-10T12:34:39;94444.72;;;9.75;64.81
32243;BME280;18731;42.830;24.390;2023-04-10T12:37:06;94438.00;;;9.69;64.49
32243;BME280;18731;42.830;24.390;2023-04-10T12:39:32;94452.13;;;9.70;64.60
32243;BME280;18731;42.830;24.390;2023-04-10T12:42:20;94454.47;;;9.71;65.82
32243;BME280;18731;42.830;24.390;2023-04-10T12:44:58;94454.13;;;9.73;66.11
32243;BME280;18731;42.830;24.390;2023-04-10T12:47:26;94450.97;;;9.79;66.36
32243;BME280;18731;42.830;24.390;2023-04-10T12:50:08;94462.69;;;9.57;65.55
32243;BME280;18731;42.830;24.390;2023-04-10T12:52:37;94464.19;;;9.38;64.18
32243;BME280;18731;42.830;24.390;2023-04-10T12:55:19;94486.81;;;9.23;66.50
32243;BME280;18731;42.830;24.390;2023-04-10T12:57:47;94488.47;;;8.89;67.62
32243;BME280;18731;42.830;24.390;2023-04-10T13:00:17;94483.34;;;8.67;70.06
32243;BME280;18731;42.830;24.390;2023-04-10T13:02:44;94485.53;;;8.56;70.10
32243;BME280;18731;42.830;24.390;2023-04-10T13:05:11;94489.00;;;8.57;71.39
32243;BME280;18731;42.830;24.390;2023-04-10T13:07:37;94472.09;;;8.53;71.58
32243;BME280;18731;42.830;24.390;2023-04-10T13:10:04;94489.63;;;8.54;70.89
32243;BME280;18731;42.830;24.390;2023-04-10T13:12:30;94500.88;;;8.51;69.45
32243;BME280;18731;42.830;24.390;2023-04-10T13:14:56;94484.47;;;8.49;68.87
32243;BME280;18731;42.830;24.390;2023-04-10T13:17:23;94508.25;;;8.54;68.57
32243;BME280;18731;42.830;24.390;2023-04-10T13:19:49;94505.59;;;8.45;68.36
32243;BME280;18731;42.830;24.390;2023-04-10T13:22:15;94514.81;;;8.39;68.60
32243;BME280;18731;42.830;24.390;2023-04-10T13:24:42;94505.56;;;8.28;71.12
32243;BME280;18731;42.830;24.390;2023-04-10T13:27:08;94484.44;;;8.14;71.25
32243;BME280;18731;42.830;24.390;2023-04-10T13:29:37;94503.66;;;8.28;72.04
32243;BME280;18731;42.830;24.390;2023-04-10T13:32:03;94489.75;;;8.14;71.49
32243;BME280;18731;42.830;24.390;2023-04-10T13:34:31;94498.50;;;8.23;71.72
32243;BME280;18731;42.830;24.390;2023-04-10T13:36:57;94501.47;;;8.13;70.65
32243;BME280;18731;42.830;24.390;2023-04-10T13:39:24;94498.97;;;8.25;69.93
32243;BME280;18731;42.830;24.390;2023-04-10T13:41:50;94501.31;;;8.27;71.26
32243;BME280;18731;42.830;24.390;2023-04-10T13:44:16;94469.25;;;8.15;69.90
32243;BME280;18731;42.830;24.390;2023-04-10T13:46:43;94490.25;;;8.33;71.56
32243;BME280;18731;42.830;24.390;2023-04-10T13:49:09;94487.09;;;8.31;69.91
32243;BME280;18731;42.830;24.390;2023-04-10T13:51:35;94487.75;;;8.46;70.71
32243;BME280;18731;42.830;24.390;2023-04-10T13:54:02;94484.13;;;8.50;70.94
32243;BME280;18731;42.830;24.390;2023-04-10T13:56:29;94481.63;;;8.71;70.81
32243;BME280;18731;42.830;24.390;2023-04-10T13:58:54;94466.13;;;8.73;71.29
32243;BME280;18731;42.830;24.390;2023-04-10T14:01:20;94457.34;;;8.81;70.18
32243;BME280;18731;42.830;24.390;2023-04-10T14:03:46;94486.88;;;8.97;70.39
32243;BME280;18731;42.830;24.390;2023-04-10T14:06:11;94478.72;;;9.02;69.96
32243;BME280;18731;42.830;24.390;2023-04-10T14:08:38;94472.78;;;8.96;68.66
32243;BME280;18731;42.830;24.390;2023-04-10T14:11:05;94470.78;;;8.85;70.09
32243;BME280;18731;42.830;24.390;2023-04-10T14:13:30;94471.88;;;8.84;71.54
32243;BME280;18731;42.830;24.390;2023-04-10T14:15:56;94477.06;;;8.80;73.18
32243;BME280;18731;42.830;24.390;2023-04-10T14:18:21;94468.31;;;8.71;73.07
32243;BME280;18731;42.830;24.390;2023-04-10T14:20:47;94464.25;;;8.65;74.47
32243;BME280;18731;42.830;24.390;2023-04-10T14:23:13;94455.31;;;8.69;74.69
32243;BME280;18731;42.830;24.390;2023-04-10T14:25:45;94461.88;;;8.72;73.45
32243;BME280;18731;42.830;24.390;2023-04-10T14:28:11;94466.56;;;8.75;73.70
32243;BME280;18731;42.830;24.390;2023-04-10T14:30:44;94473.44;;;8.85;73.17
32243;BME280;18731;42.830;24.390;2023-04-10T14:33:11;94469.97;;;8.93;73.70
32243;BME280;18731;42.830;24.390;2023-04-10T14:35:37;94465.44;;;8.93;73.16
32243;BME280;18731;42.830;24.390;2023-04-10T14:38:02;94475.63;;;8.91;72.38
32243;BME280;18731;42.830;24.390;2023-04-10T14:40:28;94468.72;;;8.99;73.17
32243;BME280;18731;42.830;24.390;2023-04-10T14:42:54;94461.84;;;8.89;71.75
32243;BME280;18731;42.830;24.390;2023-04-10T14:45:19;94458.88;;;8.91;71.33
32243;BME280;18731;42.830;24.390;2023-04-10T14:47:45;94481.53;;;9.06;71.45
32243;BME280;18731;42.830;24.390;2023-04-10T14:50:12;94469.47;;;9.08;72.00
32243;BME280;18731;42.830;24.390;2023-04-10T14:52:37;94472.28;;;9.12;71.00
32243;BME280;18731;42.830;24.390;2023-04-10T14:55:03;94468.69;;;9.08;71.56
32243;BME280;18731;42.830;24.390;2023-04-10T14:57:30;94467.91;;;9.07;72.05
32243;BME280;18731;42.830;24.390;2023-04-10T14:59:55;94465.09;;;9.03;74.34
32243;BME280;18731;42.830;24.390;2023-04-10T15:02:21;94454.00;;;9.01;73.50
32243;BME280;18731;42.830;24.390;2023-04-10T15:04:47;94446.28;;;9.09;73.96
32243;BME280;18731;42.830;24.390;2023-04-10T15:07:13;94447.22;;;9.13;74.08
32243;BME280;18731;42.830;24.390;2023-04-10T15:09:38;94445.63;;;9.20;74.56
32243;BME280;18731;42.830;24.390;2023-04-10T15:12:05;94436.22;;;9.23;74.98
32243;BME280;18731;42.830;24.390;2023-04-10T15:14:31;94438.41;;;9.21;74.20
32243;BME280;18731;42.830;24.390;2023-04-10T15:16:57;94425.78;;;9.09;73.76
32243;BME280;18731;42.830;24.390;2023-04-10T15:19:23;94432.16;;;9.17;73.75
32243;BME280;18731;42.830;24.390;2023-04-10T15:21:48;94424.78;;;9.22;73.46
32243;BME280;18731;42.830;24.390;2023-04-10T15:24:14;94406.78;;;9.19;73.04
32243;BME280;18731;42.830;24.390;2023-04-10T15:26:43;94419.03;;;9.12;74.57
32243;BME280;18731;42.830;24.390;2023-04-10T15:29:10;94431.66;;;9.23;74.58
32243;BME280;18731;42.830;24.390;2023-04-10T15:31:36;94423.22;;;9.21;74.66
32243;BME280;18731;42.830;24.390;2023-04-10T15:34:02;94433.59;;;9.14;72.87
32243;BME280;18731;42.830;24.390;2023-04-10T15:36:27;94425.13;;;9.12;72.19
32243;BME280;18731;42.830;24.390;2023-04-10T15:38:54;94428.47;;;9.00;73.14
32243;BME280;18731;42.830;24.390;2023-04-10T15:41:20;94397.72;;;8.74;73.21
32243;BME280;18731;42.830;24.390;2023-04-10T15:43:47;94410.81;;;8.87;73.79
32243;BME280;18731;42.830;24.390;2023-04-10T15:46:13;94425.34;;;8.98;74.10
32243;BME280;18731;42.830;24.390;2023-04-10T15:48:41;94400.91;;;8.96;74.98
32243;BME280;18731;42.830;24.390;2023-04-10T15:51:07;94384.84;;;8.84;76.51
32243;BME280;18731;42.830;24.390;2023-04-10T15:53:33;94420.19;;;8.93;75.99
32243;BME280;18731;42.830;24.390;2023-04-10T15:56:03;94405.03;;;8.85;76.12
32243;BME280;18731;42.830;24.390;2023-04-10T15:58:29;94406.59;;;8.86;77.05
32243;BME280;18731;42.830;24.390;2023-04-10T16:00:55;94418.13;;;8.99;76.78
32243;BME280;18731;42.830;24.390;2023-04-10T16:03:21;94425.00;;;9.09;76.46
32243;BME280;18731;42.830;24.390;2023-04-10T16:05:46;94400.50;;;8.86;76.48
32243;BME280;18731;42.830;24.390;2023-04-10T16:08:12;94410.06;;;8.78;77.60
32243;BME280;18731;42.830;24.390;2023-04-10T16:10:38;94400.88;;;8.67;77.71
32243;BME280;18731;42.830;24.390;2023-04-10T16:13:03;94390.91;;;8.47;77.15
32243;BME280;18731;42.830;24.390;2023-04-10T16:15:34;94407.88;;;8.72;76.87
32243;BME280;18731;42.830;24.390;2023-04-10T16:18:05;94388.66;;;8.66;76.87
32243;BME280;18731;42.830;24.390;2023-04-10T16:20:32;94397.41;;;8.75;77.09
32243;BME280;18731;42.830;24.390;2023-04-10T16:22:58;94401.13;;;8.83;77.54
32243;BME280;18731;42.830;24.390;2023-04-10T16:25:24;94396.72;;;8.87;78.28